sensor_id;sensor_type;location;lat;lon;timestamp;pressure;altitude;pressure_sealevel;temperature;humidity
4410;BME280;2218;51.408;7.208;2023-08-31T00:01:36;98997.75;;;21.89;54.59
4410;BME280;2218;51.408;7.208;2023-08-31T00:04:03;98989.94;;;21.88;54.97
4410;BME280;2218;51.408;7.208;2023-08-31T00:06:33;98995.22;;;21.88;54.76
4410;BME280;2218;51.408;7.208;2023-08-31T00:09:00;98994.41;;;21.87;55.04
4410;BME280;2218;51.408;7.208;2023-08-31T00:11:30;98999.69;;;21.87;54.55
4410;BME280;2218;51.408;7.208;2023-08-31T00:13:58;99001.50;;;21.87;54.44
4410;BME280;2218;51.408;7.208;2023-08-31T00:16:25;98996.22;;;21.87;54.82
4410;BME280;2218;51.408;7.208;2023-08-31T00:18:52;98997.19;;;21.86;54.48
4410;BME280;2218;51.408;7.208;2023-08-31T00:21:20;98985.78;;;21.85;54.42
4410;BME280;2218;51.408;7.208;2023-08-31T00:23:47;98991.06;;;21.85;55.07
4410;BME280;2218;51.408;7.208;2023-08-31T00:26:15;98988.44;;;21.85;54.38
4410;BME280;2218;51.408;7.208;2023-08-31T00:28:44;98990.25;;;21.85;54.70
4410;BME280;2218;51.408;7.208;2023-08-31T00:31:12;98983.28;;;21.84;54.85
4410;BME280;2218;51.408;7.208;2023-08-31T00:33:39;98989.41;;;21.84;54.40
4410;BME280;2218;51.408;7.208;2023-08-31T00:36:06;98989.41;;;21.84;54.40
4410;BME280;2218;51.408;7.208;2023-08-31T00:38:33;98995.53;;;21.85;54.71
4410;BME280;2218;51.408;7.208;2023-08-31T00:41:01;98993.88;;;21.84;54.47
4410;BME280;2218;51.408;7.208;2023-08-31T00:43:29;98992.16;;;21.83;54.47
4410;BME280;2218;51.408;7.208;2023-08-31T00:45:57;99004.56;;;21.82;54.47
4410;BME280;2218;51.408;7.208;2023-08-31T00:48:26;99000.97;;;21.83;54.82
4410;BME280;2218;51.408;7.208;2023-08-31T00:50:54;98997.47;;;21.83;54.90
4410;BME280;2218;51.408;7.208;2023-08-31T00:53:21;99002.75;;;21.83;54.78
4410;BME280;2218;51.408;7.208;2023-08-31T00:55:49;99000.25;;;21.81;54.86
4410;BME280;2218;51.408;7.208;2023-08-31T00:58:15;98993.31;;;21.80;54.32
4410;BME280;2218;51.408;7.208;2023-08-31T01:00:51;99000.25;;;21.81;54.29
4410;BME280;2218;51.408;7.208;2023-08-31T01:03:39;98990.66;;;21.80;54.88
4410;BME280;2218;51.408;7.208;2023-08-31T01:06:16;98997.63;;;21.81;54.53
4410;BME280;2218;51.408;7.208;2023-08-31T01:08:53;99001.25;;;21.80;54.50
4410;BME280;2218;51.408;7.208;2023-08-31T01:11:29;99009.16;;;21.80;54.48
4410;BME280;2218;51.408;7.208;2023-08-31T01:14:07;99004.72;;;21.81;54.80
4410;BME280;2218;51.408;7.208;2023-08-31T01:16:41;99004.72;;;21.81;54.21
4410;BME280;2218;51.408;7.208;2023-08-31T01:19:29;99002.22;;;21.79;54.63
4410;BME280;2218;51.408;7.208;2023-08-31T01:22:03;98999.56;;;21.79;54.50
4410;BME280;2218;51.408;7.208;2023-08-31T01:24:34;98991.63;;;21.79;54.27
4410;BME280;2218;51.408;7.208;2023-08-31T01:27:01;98998.84;;;21.77;54.74
4410;BME280;2218;51.408;7.208;2023-08-31T01:29:30;98996.09;;;21.79;54.47
4410;BME280;2218;51.408;7.208;2023-08-31T01:31:57;98996.22;;;21.77;54.68
4410;BME280;2218;51.408;7.208;2023-08-31T01:34:24;98994.41;;;21.78;54.64
4410;BME280;2218;51.408;7.208;2023-08-31T01:36:56;98995.25;;;21.78;54.15
4410;BME280;2218;51.408;7.208;2023-08-31T01:39:33;98995.25;;;21.78;54.48
4410;BME280;2218;51.408;7.208;2023-08-31T01:42:06;98991.75;;;21.78;54.30
4410;BME280;2218;51.408;7.208;2023-08-31T01:44:36;98994.41;;;21.78;54.20
4410;BME280;2218;51.408;7.208;2023-08-31T01:47:05;98991.91;;;21.76;54.11
4410;BME280;2218;51.408;7.208;2023-08-31T01:49:37;98991.91;;;21.76;54.12
4410;BME280;2218;51.408;7.208;2023-08-31T01:52:05;98999.84;;;21.76;54.69
4410;BME280;2218;51.408;7.208;2023-08-31T01:54:34;98993.72;;;21.76;54.88
4410;BME280;2218;51.408;7.208;2023-08-31T01:57:03;98992.88;;;21.75;54.22
4410;BME280;2218;51.408;7.208;2023-08-31T01:59:31;99003.47;;;21.75;54.59
4410;BME280;2218;51.408;7.208;2023-08-31T02:01:59;99014.03;;;21.75;54.29
4410;BME280;2218;51.408;7.208;2023-08-31T02:04:27;99015.03;;;21.74;54.18
4410;BME280;2218;51.408;7.208;2023-08-31T02:06:56;99009.03;;;21.72;54.63
4410;BME280;2218;51.408;7.208;2023-08-31T02:09:23;99008.06;;;21.73;54.59
4410;BME280;2218;51.408;7.208;2023-08-31T02:11:52;99006.38;;;21.72;54.05
4410;BME280;2218;51.408;7.208;2023-08-31T02:14:18;99002.91;;;21.72;54.54
4410;BME280;2218;51.408;7.208;2023-08-31T02:16:47;99002.91;;;21.72;54.54
4410;BME280;2218;51.408;7.208;2023-08-31T02:19:14;99007.34;;;21.71;54.22
4410;BME280;2218;51.408;7.208;2023-08-31T02:21:41;99013.47;;;21.72;54.58
4410;BME280;2218;51.408;7.208;2023-08-31T02:24:08;99010.00;;;21.71;54.13
4410;BME280;2218;51.408;7.208;2023-08-31T02:26:35;99011.81;;;21.71;54.46
4410;BME280;2218;51.408;7.208;2023-08-31T02:29:04;99012.78;;;21.70;54.53
4410;BME280;2218;51.408;7.208;2023-08-31T02:31:32;99018.91;;;21.70;54.35
4410;BME280;2218;51.408;7.208;2023-08-31T02:33:59;99017.25;;;21.69;54.58
4410;BME280;2218;51.408;7.208;2023-08-31T02:36:26;99022.53;;;21.69;54.09
4410;BME280;2218;51.408;7.208;2023-08-31T02:38:53;99022.53;;;21.69;54.15
4410;BME280;2218;51.408;7.208;2023-08-31T02:41:20;99021.81;;;21.67;54.25
4410;BME280;2218;51.408;7.208;2023-08-31T02:43:50;99015.69;;;21.66;54.52
4410;BME280;2218;51.408;7.208;2023-08-31T02:46:18;99019.19;;;21.67;54.12
4410;BME280;2218;51.408;7.208;2023-08-31T02:48:46;99016.69;;;21.65;54.30
4410;BME280;2218;51.408;7.208;2023-08-31T02:51:14;99024.47;;;21.67;53.85
4410;BME280;2218;51.408;7.208;2023-08-31T02:53:41;99016.69;;;21.65;54.38
4410;BME280;2218;51.408;7.208;2023-08-31T02:56:08;99015.84;;;21.65;54.51
4410;BME280;2218;51.408;7.208;2023-08-31T02:58:35;99015.03;;;21.64;54.67
4410;BME280;2218;51.408;7.208;2023-08-31T03:01:09;99021.97;;;21.65;54.13
4410;BME280;2218;51.408;7.208;2023-08-31T03:03:42;99014.19;;;21.64;53.90
4410;BME280;2218;51.408;7.208;2023-08-31T03:06:11;99012.38;;;21.64;54.51
4410;BME280;2218;51.408;7.208;2023-08-31T03:08:38;99007.19;;;21.63;54.45
4410;BME280;2218;51.408;7.208;2023-08-31T03:11:06;99010.72;;;21.63;54.04
4410;BME280;2218;51.408;7.208;2023-08-31T03:13:33;99010.81;;;21.62;54.47
4410;BME280;2218;51.408;7.208;2023-08-31T03:16:02;99008.19;;;21.62;54.03
4410;BME280;2218;51.408;7.208;2023-08-31T03:18:29;99016.13;;;21.62;53.84
4410;BME280;2218;51.408;7.208;2023-08-31T03:20:57;99021.41;;;21.62;54.04
4410;BME280;2218;51.408;7.208;2023-08-31T03:23:24;99013.47;;;21.62;54.16
4410;BME280;2218;51.408;7.208;2023-08-31T03:25:52;99026.69;;;21.62;54.43
4410;BME280;2218;51.408;7.208;2023-08-31T03:28:19;99027.66;;;21.61;54.07
4410;BME280;2218;51.408;7.208;2023-08-31T03:30:54;99032.97;;;21.61;54.15
4410;BME280;2218;51.408;7.208;2023-08-31T03:33:22;99030.31;;;21.61;54.01
4410;BME280;2218;51.408;7.208;2023-08-31T03:35:49;99026.84;;;21.60;53.78
4410;BME280;2218;51.408;7.208;2023-08-31T03:38:17;99030.31;;;21.61;53.69
4410;BME280;2218;51.408;7.208;2023-08-31T03:40:53;99026.00;;;21.60;54.32
4410;BME280;2218;51.408;7.208;2023-08-31T03:43:20;99028.81;;;21.58;54.28
4410;BME280;2218;51.408;7.208;2023-08-31T03:45:54;99030.56;;;21.58;53.87
4410;BME280;2218;51.408;7.208;2023-08-31T03:48:22;99027.94;;;21.58;53.94
4410;BME280;2218;51.408;7.208;2023-08-31T03:50:50;99035.88;;;21.58;54.44
4410;BME280;2218;51.408;7.208;2023-08-31T03:53:19;99035.88;;;21.58;54.28
4410;BME280;2218;51.408;7.208;2023-08-31T03:55:46;99023.63;;;21.57;54.26
4410;BME280;2218;51.408;7.208;2023-08-31T03:58:14;99025.44;;;21.56;53.99
4410;BME280;2218;51.408;7.208;2023-08-31T04:00:49;99029.06;;;21.55;54.21
4410;BME280;2218;51.408;7.208;2023-08-31T04:03:17;99033.38;;;21.56;53.92
4410;BME280;2218;51.408;7.208;2023-08-31T04:05:44;99037.69;;;21.57;53.73
4410;BME280;2218;51.408;7.208;2023-08-31T04:08:12;99039.50;;;21.57;53.83
4410;BME280;2218;51.408;7.208;2023-08-31T04:10:40;99044.78;;;21.57;53.75
4410;BME280;2218;51.408;7.208;2023-08-31T04:13:07;99048.41;;;21.56;53.77
4410;BME280;2218;51.408;7.208;2023-08-31T04:15:34;99050.06;;;21.57;53.52
4410;BME280;2218;51.408;7.208;2023-08-31T04:18:01;99046.59;;;21.56;53.50
4410;BME280;2218;51.408;7.208;2023-08-31T04:20:28;99044.78;;;21.57;53.95
4410;BME280;2218;51.408;7.208;2023-08-31T04:22:55;99053.69;;;21.56;53.91
4410;BME280;2218;51.408;7.208;2023-08-31T04:25:22;99049.22;;;21.56;53.58
4410;BME280;2218;51.408;7.208;2023-08-31T04:27:50;99051.03;;;21.56;53.60
4410;BME280;2218;51.408;7.208;2023-08-31T04:30:17;99053.69;;;21.56;53.44
4410;BME280;2218;51.408;7.208;2023-08-31T04:32:44;99052.03;;;21.55;53.29
4410;BME280;2218;51.408;7.208;2023-08-31T04:35:12;99052.03;;;21.55;53.35
4410;BME280;2218;51.408;7.208;2023-08-31T04:37:39;99052.03;;;21.55;53.52
4410;BME280;2218;51.408;7.208;2023-08-31T04:40:08;99050.34;;;21.54;53.24
4410;BME280;2218;51.408;7.208;2023-08-31T04:42:35;99054.66;;;21.55;53.73
4410;BME280;2218;51.408;7.208;2023-08-31T04:45:05;99055.66;;;21.54;53.24
4410;BME280;2218;51.408;7.208;2023-08-31T04:47:32;99054.66;;;21.55;53.62
4410;BME280;2218;51.408;7.208;2023-08-31T04:49:59;99060.94;;;21.54;53.61
4410;BME280;2218;51.408;7.208;2023-08-31T04:52:26;99060.94;;;21.54;53.47
4410;BME280;2218;51.408;7.208;2023-08-31T04:54:53;99060.94;;;21.54;53.20
4410;BME280;2218;51.408;7.208;2023-08-31T04:57:20;99060.94;;;21.54;53.62
4410;BME280;2218;51.408;7.208;2023-08-31T04:59:47;99067.16;;;21.53;53.44
4410;BME280;2218;51.408;7.208;2023-08-31T05:02:15;99067.16;;;21.53;53.47
4410;BME280;2218;51.408;7.208;2023-08-31T05:04:42;99072.47;;;21.53;53.75
4410;BME280;2218;51.408;7.208;2023-08-31T05:07:09;99079.56;;;21.52;53.75
4410;BME280;2218;51.408;7.208;2023-08-31T05:09:36;99080.38;;;21.53;53.29
4410;BME280;2218;51.408;7.208;2023-08-31T05:12:03;99080.38;;;21.53;53.40
4410;BME280;2218;51.408;7.208;2023-08-31T05:14:31;99085.69;;;21.53;53.71
4410;BME280;2218;51.408;7.208;2023-08-31T05:16:57;99091.94;;;21.52;53.24
4410;BME280;2218;51.408;7.208;2023-08-31T05:19:26;99097.22;;;21.52;53.61
4410;BME280;2218;51.408;7.208;2023-08-31T05:21:52;99105.16;;;21.52;53.33
4410;BME280;2218;51.408;7.208;2023-08-31T05:24:19;99089.28;;;21.52;53.37
4410;BME280;2218;51.408;7.208;2023-08-31T05:26:46;99098.22;;;21.51;53.76
4410;BME280;2218;51.408;7.208;2023-08-31T05:29:13;99100.00;;;21.50;53.91
4410;BME280;2218;51.408;7.208;2023-08-31T05:31:40;99102.66;;;21.50;53.46
4410;BME280;2218;51.408;7.208;2023-08-31T05:34:09;99106.28;;;21.49;53.43
4410;BME280;2218;51.408;7.208;2023-08-31T05:36:37;99104.47;;;21.50;53.61
4410;BME280;2218;51.408;7.208;2023-08-31T05:39:04;99109.75;;;21.50;53.59
4410;BME280;2218;51.408;7.208;2023-08-31T05:41:31;99105.31;;;21.50;53.76
4410;BME280;2218;51.408;7.208;2023-08-31T05:43:58;99113.22;;;21.50;54.00
4410;BME280;2218;51.408;7.208;2023-08-31T05:46:26;99113.22;;;21.50;53.63
4410;BME280;2218;51.408;7.208;2023-08-31T05:48:53;99120.19;;;21.51;53.73
4410;BME280;2218;51.408;7.208;2023-08-31T05:51:20;99128.69;;;21.55;53.99
4410;BME280;2218;51.408;7.208;2023-08-31T05:53:48;99124.38;;;21.54;53.46
4410;BME280;2218;51.408;7.208;2023-08-31T05:56:15;99130.50;;;21.54;53.52
4410;BME280;2218;51.408;7.208;2023-08-31T05:58:42;99135.50;;;21.57;53.51
4410;BME280;2218;51.408;7.208;2023-08-31T06:01:09;99134.41;;;21.60;53.96
4410;BME280;2218;51.408;7.208;2023-08-31T06:03:36;99135.09;;;21.62;53.87
4410;BME280;2218;51.408;7.208;2023-08-31T06:06:03;99129.56;;;21.65;53.43
4410;BME280;2218;51.408;7.208;2023-08-31T06:08:30;99137.19;;;21.68;53.40
4410;BME280;2218;51.408;7.208;2023-08-31T06:10:58;99135.28;;;21.70;53.49
4410;BME280;2218;51.408;7.208;2023-08-31T06:13:25;99139.44;;;21.73;53.74
4410;BME280;2218;51.408;7.208;2023-08-31T06:15:55;99141.13;;;21.74;54.06
4410;BME280;2218;51.408;7.208;2023-08-31T06:18:23;99136.13;;;21.80;53.67
4410;BME280;2218;51.408;7.208;2023-08-31T06:20:50;99145.72;;;21.81;53.39
4410;BME280;2218;51.408;7.208;2023-08-31T06:23:17;99148.13;;;21.84;52.38
4410;BME280;2218;51.408;7.208;2023-08-31T06:25:44;99151.44;;;21.86;52.31
4410;BME280;2218;51.408;7.208;2023-08-31T06:28:12;99153.84;;;21.89;51.72
4410;BME280;2218;51.408;7.208;2023-08-31T06:30:40;99152.84;;;21.81;51.47
4410;BME280;2218;51.408;7.208;2023-08-31T06:33:12;99154.91;;;21.77;51.00
4410;BME280;2218;51.408;7.208;2023-08-31T06:35:39;99159.34;;;21.77;50.97
4410;BME280;2218;51.408;7.208;2023-08-31T06:38:06;99163.13;;;21.74;50.93
4410;BME280;2218;51.408;7.208;2023-08-31T06:40:32;99156.16;;;21.73;50.63
4410;BME280;2218;51.408;7.208;2023-08-31T06:42:59;99154.88;;;21.67;51.24
4410;BME280;2218;51.408;7.208;2023-08-31T06:45:28;99151.72;;;21.74;50.63
4410;BME280;2218;51.408;7.208;2023-08-31T06:47:55;99159.50;;;21.75;51.11
4410;BME280;2218;51.408;7.208;2023-08-31T06:50:21;99163.97;;;21.75;51.14
4410;BME280;2218;51.408;7.208;2023-08-31T06:52:48;99158.66;;;21.75;50.69
4410;BME280;2218;51.408;7.208;2023-08-31T06:55:15;99153.22;;;21.76;50.31
4410;BME280;2218;51.408;7.208;2023-08-31T06:57:42;99148.66;;;21.78;50.22
4410;BME280;2218;51.408;7.208;2023-08-31T07:00:11;99157.28;;;21.80;50.58
4410;BME280;2218;51.408;7.208;2023-08-31T07:02:41;99155.22;;;21.84;50.71
4410;BME280;2218;51.408;7.208;2023-08-31T07:05:11;99162.19;;;21.85;50.33
4410;BME280;2218;51.408;7.208;2023-08-31T07:07:37;99162.69;;;21.69;51.13
4410;BME280;2218;51.408;7.208;2023-08-31T07:10:06;99164.09;;;21.83;50.62
4410;BME280;2218;51.408;7.208;2023-08-31T07:12:33;99164.00;;;21.84;50.56
4410;BME280;2218;51.408;7.208;2023-08-31T07:15:00;99167.06;;;21.89;50.41
4410;BME280;2218;51.408;7.208;2023-08-31T07:17:27;99161.34;;;21.84;50.06
4410;BME280;2218;51.408;7.208;2023-08-31T07:19:56;99162.75;;;21.88;50.65
4410;BME280;2218;51.408;7.208;2023-08-31T07:22:23;99165.38;;;21.88;49.96
4410;BME280;2218;51.408;7.208;2023-08-31T07:24:50;99163.97;;;21.75;50.48
4410;BME280;2218;51.408;7.208;2023-08-31T07:27:17;99155.34;;;21.82;50.15
4410;BME280;2218;51.408;7.208;2023-08-31T07:29:43;99171.47;;;21.70;50.09
4410;BME280;2218;51.408;7.208;2023-08-31T07:32:10;99168.97;;;21.78;50.21
4410;BME280;2218;51.408;7.208;2023-08-31T07:34:37;99171.09;;;21.84;49.68
4410;BME280;2218;51.408;7.208;2023-08-31T07:37:06;99166.34;;;21.87;50.66
4410;BME280;2218;51.408;7.208;2023-08-31T07:39:33;99169.97;;;21.86;50.47
4410;BME280;2218;51.408;7.208;2023-08-31T07:42:00;99168.97;;;21.87;50.14
4410;BME280;2218;51.408;7.208;2023-08-31T07:44:27;99178.47;;;21.90;50.11
4410;BME280;2218;51.408;7.208;2023-08-31T07:46:54;99175.97;;;21.88;50.26
4410;BME280;2218;51.408;7.208;2023-08-31T07:49:21;99180.00;;;21.92;49.63
4410;BME280;2218;51.408;7.208;2023-08-31T07:51:48;99184.03;;;21.87;50.21
4410;BME280;2218;51.408;7.208;2023-08-31T07:54:21;99176.81;;;21.89;49.63
4410;BME280;2218;51.408;7.208;2023-08-31T07:56:48;99182.63;;;21.92;50.29
4410;BME280;2218;51.408;7.208;2023-08-31T07:59:16;99192.28;;;21.93;49.69
4410;BME280;2218;51.408;7.208;2023-08-31T08:01:44;99195.75;;;21.94;49.73
4410;BME280;2218;51.408;7.208;2023-08-31T08:04:11;99195.88;;;21.92;49.52
4410;BME280;2218;51.408;7.208;2023-08-31T08:06:38;99192.34;;;21.73;50.29
4410;BME280;2218;51.408;7.208;2023-08-31T08:09:06;99201.09;;;21.63;49.75
4410;BME280;2218;51.408;7.208;2023-08-31T08:11:34;99199.00;;;21.67;49.54
4410;BME280;2218;51.408;7.208;2023-08-31T08:14:02;99201.13;;;21.73;49.99
4410;BME280;2218;51.408;7.208;2023-08-31T08:16:29;99210.88;;;21.82;49.67
4410;BME280;2218;51.408;7.208;2023-08-31T08:18:56;99204.50;;;21.85;49.26
4410;BME280;2218;51.408;7.208;2023-08-31T08:21:22;99207.00;;;21.86;49.45
4410;BME280;2218;51.408;7.208;2023-08-31T08:23:49;99199.78;;;21.88;49.81
4410;BME280;2218;51.408;7.208;2023-08-31T08:26:18;99207.84;;;21.87;49.41
4410;BME280;2218;51.408;7.208;2023-08-31T08:28:46;99206.56;;;21.81;49.40
4410;BME280;2218;51.408;7.208;2023-08-31T08:31:13;99205.16;;;21.77;49.59
4410;BME280;2218;51.408;7.208;2023-08-31T08:33:40;99215.22;;;21.83;49.78
4410;BME280;2218;51.408;7.208;2023-08-31T08:36:07;99216.50;;;21.89;49.66
4410;BME280;2218;51.408;7.208;2023-08-31T08:38:34;99205.91;;;21.89;49.38
4410;BME280;2218;51.408;7.208;2023-08-31T08:41:04;99220.66;;;21.91;49.19
4410;BME280;2218;51.408;7.208;2023-08-31T08:43:34;99223.31;;;21.91;49.55
4410;BME280;2218;51.408;7.208;2023-08-31T08:46:05;99220.66;;;21.91;49.72
4410;BME280;2218;51.408;7.208;2023-08-31T08:48:34;99219.81;;;21.91;49.65
4410;BME280;2218;51.408;7.208;2023-08-31T08:51:03;99220.81;;;21.90;49.56
4410;BME280;2218;51.408;7.208;2023-08-31T08:53:31;99215.66;;;21.88;49.65
4410;BME280;2218;51.408;7.208;2023-08-31T08:55:58;99220.78;;;21.80;49.35
4410;BME280;2218;51.408;7.208;2023-08-31T08:58:25;99212.06;;;21.59;49.85
4410;BME280;2218;51.408;7.208;2023-08-31T09:00:55;99211.53;;;21.65;50.19
4410;BME280;2218;51.408;7.208;2023-08-31T09:03:24;99211.25;;;21.68;50.03
4410;BME280;2218;51.408;7.208;2023-08-31T09:05:51;99224.47;;;21.68;50.52
4410;BME280;2218;51.408;7.208;2023-08-31T09:08:26;99226.59;;;21.74;50.08
4410;BME280;2218;51.408;7.208;2023-08-31T09:10:56;99222.00;;;21.76;50.18
4410;BME280;2218;51.408;7.208;2023-08-31T09:13:27;99221.53;;;21.61;50.80
4410;BME280;2218;51.408;7.208;2023-08-31T09:15:55;99223.34;;;21.61;50.72
4410;BME280;2218;51.408;7.208;2023-08-31T09:18:29;99228.41;;;21.74;50.22
4410;BME280;2218;51.408;7.208;2023-08-31T09:20:57;99229.41;;;21.82;50.51
4410;BME280;2218;51.408;7.208;2023-08-31T09:23:25;99233.75;;;21.83;50.57
4410;BME280;2218;51.408;7.208;2023-08-31T09:25:53;99223.00;;;21.85;50.74
4410;BME280;2218;51.408;7.208;2023-08-31T09:28:22;99232.47;;;21.87;50.83
4410;BME280;2218;51.408;7.208;2023-08-31T09:30:50;99233.88;;;21.91;50.56
4410;BME280;2218;51.408;7.208;2023-08-31T09:33:19;99230.25;;;21.92;50.02
4410;BME280;2218;51.408;7.208;2023-08-31T09:35:51;99234.03;;;21.90;50.66
4410;BME280;2218;51.408;7.208;2023-08-31T09:38:19;99233.88;;;21.91;49.99
4410;BME280;2218;51.408;7.208;2023-08-31T09:40:46;99235.94;;;21.88;50.45
4410;BME280;2218;51.408;7.208;2023-08-31T09:43:19;99237.50;;;21.90;50.68
4410;BME280;2218;51.408;7.208;2023-08-31T09:45:48;99233.88;;;21.91;50.56
4410;BME280;2218;51.408;7.208;2023-08-31T09:48:16;99236.28;;;21.94;50.57
4410;BME280;2218;51.408;7.208;2023-08-31T09:50:45;99233.63;;;21.94;51.24
4410;BME280;2218;51.408;7.208;2023-08-31T09:53:16;99234.47;;;21.95;50.79
4410;BME280;2218;51.408;7.208;2023-08-31T09:55:44;99239.91;;;21.93;51.47
4410;BME280;2218;51.408;7.208;2023-08-31T09:58:17;99251.16;;;21.96;50.76
4410;BME280;2218;51.408;7.208;2023-08-31T10:00:48;99244.22;;;21.94;49.82
4410;BME280;2218;51.408;7.208;2023-08-31T10:03:15;99242.53;;;21.93;50.06
4410;BME280;2218;51.408;7.208;2023-08-31T10:05:43;99244.22;;;21.94;50.10
4410;BME280;2218;51.408;7.208;2023-08-31T10:08:11;99247.69;;;21.95;49.85
4410;BME280;2218;51.408;7.208;2023-08-31T10:10:40;99253.13;;;21.93;49.99
4410;BME280;2218;51.408;7.208;2023-08-31T10:13:08;99245.31;;;21.92;49.53
4410;BME280;2218;51.408;7.208;2023-08-31T10:15:36;99253.13;;;21.93;49.92
4410;BME280;2218;51.408;7.208;2023-08-31T10:18:04;99260.25;;;21.72;48.62
4410;BME280;2218;51.408;7.208;2023-08-31T10:20:33;99261.69;;;21.76;48.90
4410;BME280;2218;51.408;7.208;2023-08-31T10:23:03;99257.13;;;21.78;48.63
4410;BME280;2218;51.408;7.208;2023-08-31T10:26:02;99250.31;;;21.85;48.69
4410;BME280;2218;51.408;7.208;2023-08-31T10:28:40;99253.91;;;21.84;49.94
4410;BME280;2218;51.408;7.208;2023-08-31T10:31:10;99237.50;;;21.90;48.83
4410;BME280;2218;51.408;7.208;2023-08-31T10:33:40;99232.22;;;21.90;48.45
4410;BME280;2218;51.408;7.208;2023-08-31T10:36:13;99236.81;;;21.88;47.95
4410;BME280;2218;51.408;7.208;2023-08-31T10:38:44;99239.47;;;21.88;48.51
4410;BME280;2218;51.408;7.208;2023-08-31T10:41:21;99220.66;;;21.91;48.17
4410;BME280;2218;51.408;7.208;2023-08-31T10:43:51;99228.59;;;21.91;47.92
4410;BME280;2218;51.408;7.208;2023-08-31T10:46:26;99226.78;;;21.92;48.50
4410;BME280;2218;51.408;7.208;2023-08-31T10:48:55;99220.81;;;21.90;48.22
4410;BME280;2218;51.408;7.208;2023-08-31T10:51:23;99225.25;;;21.89;48.33
4410;BME280;2218;51.408;7.208;2023-08-31T10:53:51;99220.81;;;21.90;47.95
4410;BME280;2218;51.408;7.208;2023-08-31T10:56:19;99217.19;;;21.91;48.09
4410;BME280;2218;51.408;7.208;2023-08-31T10:58:58;99219.00;;;21.90;48.05
4410;BME280;2218;51.408;7.208;2023-08-31T11:01:55;99215.66;;;21.88;48.30
4410;BME280;2218;51.408;7.208;2023-08-31T11:04:24;99220.94;;;21.88;48.07
4410;BME280;2218;51.408;7.208;2023-08-31T11:07:16;99225.84;;;21.62;47.97
4410;BME280;2218;51.408;7.208;2023-08-31T11:09:46;99222.72;;;21.78;48.69
4410;BME280;2218;51.408;7.208;2023-08-31T11:12:14;99217.56;;;21.86;48.41
4410;BME280;2218;51.408;7.208;2023-08-31T11:14:41;99216.34;;;21.90;48.23
4410;BME280;2218;51.408;7.208;2023-08-31T11:17:09;99220.25;;;21.96;48.37
4410;BME280;2218;51.408;7.208;2023-08-31T11:19:37;99228.03;;;21.98;48.93
4410;BME280;2218;51.408;7.208;2023-08-31T11:22:06;99216.22;;;22.02;48.78
4410;BME280;2218;51.408;7.208;2023-08-31T11:24:35;99211.66;;;22.04;48.88
4410;BME280;2218;51.408;7.208;2023-08-31T11:27:05;99225.56;;;22.06;48.83
4410;BME280;2218;51.408;7.208;2023-08-31T11:29:38;99220.03;;;22.09;48.47
4410;BME280;2218;51.408;7.208;2023-08-31T11:32:06;99220.84;;;22.09;48.38
4410;BME280;2218;51.408;7.208;2023-08-31T11:34:33;99216.41;;;22.10;48.53
4410;BME280;2218;51.408;7.208;2023-08-31T11:37:03;99210.16;;;22.11;48.98
4410;BME280;2218;51.408;7.208;2023-08-31T11:39:30;99203.88;;;22.12;49.16
4410;BME280;2218;51.408;7.208;2023-08-31T11:41:58;99208.91;;;22.15;48.84
4410;BME280;2218;51.408;7.208;2023-08-31T11:44:26;99210.56;;;22.16;48.58
4410;BME280;2218;51.408;7.208;2023-08-31T11:46:55;99228.97;;;22.17;48.94
4410;BME280;2218;51.408;7.208;2023-08-31T11:49:22;99219.22;;;22.18;49.06
4410;BME280;2218;51.408;7.208;2023-08-31T11:51:50;99218.38;;;22.17;48.65
4410;BME280;2218;51.408;7.208;2023-08-31T11:54:17;99222.56;;;22.20;48.82
4410;BME280;2218;51.408;7.208;2023-08-31T11:56:46;99215.31;;;22.22;49.07
4410;BME280;2218;51.408;7.208;2023-08-31T11:59:17;99223.25;;;22.22;49.16
4410;BME280;2218;51.408;7.208;2023-08-31T12:01:47;99220.59;;;22.22;49.41
4410;BME280;2218;51.408;7.208;2023-08-31T12:04:19;99216.16;;;22.23;49.42
4410;BME280;2218;51.408;7.208;2023-08-31T12:06:51;99224.97;;;22.23;48.97
4410;BME280;2218;51.408;7.208;2023-08-31T12:09:20;99215.88;;;22.26;49.24
4410;BME280;2218;51.408;7.208;2023-08-31T12:11:51;99222.72;;;22.28;49.05
4410;BME280;2218;51.408;7.208;2023-08-31T12:14:20;99222.72;;;22.28;49.26
4410;BME280;2218;51.408;7.208;2023-08-31T12:16:48;99222.59;;;22.30;48.53
4410;BME280;2218;51.408;7.208;2023-08-31T12:19:17;99217.28;;;22.30;48.95
4410;BME280;2218;51.408;7.208;2023-08-31T12:21:46;99222.72;;;22.28;48.54
4410;BME280;2218;51.408;7.208;2023-08-31T12:24:13;99232.34;;;22.29;48.38
4410;BME280;2218;51.408;7.208;2023-08-31T12:26:42;99229.69;;;22.29;48.64
4410;BME280;2218;51.408;7.208;2023-08-31T12:29:09;99234.00;;;22.30;48.46
4410;BME280;2218;51.408;7.208;2023-08-31T12:31:36;99233.16;;;22.30;49.02
4410;BME280;2218;51.408;7.208;2023-08-31T12:34:03;99230.38;;;22.31;48.27
4410;BME280;2218;51.408;7.208;2023-08-31T12:36:33;99230.53;;;22.30;48.53
4410;BME280;2218;51.408;7.208;2023-08-31T12:39:02;99228.72;;;22.30;48.77
4410;BME280;2218;51.408;7.208;2023-08-31T12:41:32;99230.13;;;22.34;48.37
4410;BME280;2218;51.408;7.208;2023-08-31T12:43:59;99231.78;;;22.35;48.38
4410;BME280;2218;51.408;7.208;2023-08-31T12:46:26;99238.75;;;22.36;48.97
4410;BME280;2218;51.408;7.208;2023-08-31T12:48:53;99237.75;;;22.37;48.74
4410;BME280;2218;51.408;7.208;2023-08-31T12:51:20;99236.81;;;22.38;48.39
4410;BME280;2218;51.408;7.208;2023-08-31T12:53:48;99242.09;;;22.38;48.89
4410;BME280;2218;51.408;7.208;2023-08-31T12:56:15;99242.09;;;22.38;48.55
4410;BME280;2218;51.408;7.208;2023-08-31T12:58:49;99237.66;;;22.39;48.67
4410;BME280;2218;51.408;7.208;2023-08-31T13:01:17;99236.81;;;22.38;49.59
4410;BME280;2218;51.408;7.208;2023-08-31T13:03:44;99241.28;;;22.38;49.08
4410;BME280;2218;51.408;7.208;2023-08-31T13:06:12;99232.47;;;22.37;49.10
4410;BME280;2218;51.408;7.208;2023-08-31T13:08:40;99241.28;;;22.38;49.79
4410;BME280;2218;51.408;7.208;2023-08-31T13:11:08;99234.16;;;22.38;49.64
4410;BME280;2218;51.408;7.208;2023-08-31T13:13:35;99227.88;;;22.39;49.51
4410;BME280;2218;51.408;7.208;2023-08-31T13:16:02;99223.44;;;22.40;50.12
4410;BME280;2218;51.408;7.208;2023-08-31T13:18:29;99233.19;;;22.39;49.71
4410;BME280;2218;51.408;7.208;2023-08-31T13:20:56;99229.56;;;22.40;50.14
4410;BME280;2218;51.408;7.208;2023-08-31T13:23:23;99232.19;;;22.40;50.45
4410;BME280;2218;51.408;7.208;2023-08-31T13:25:50;99231.22;;;22.41;49.84
4410;BME280;2218;51.408;7.208;2023-08-31T13:28:19;99223.28;;;22.41;50.24
4410;BME280;2218;51.408;7.208;2023-08-31T13:30:46;99231.22;;;22.41;50.62